Payson, AZ

1:23 PM MST on May 27, 2018 (GMT -0700)
Payson

Weather History for KPAN - May, 2013

Change the Weather History Date:

Saturday, May 11, 2013

  Actual Average Record
Temperature  
Mean Temperature 63 °F -  
Max Temperature 75 °F 76 °F 80 °F (2018)
Min Temperature 51 °F 40 °F 42 °F (2017)
Degree Days  
Heating Degree Days 2    
Growing Degree Days 13 (Base 50)    
Moisture  
Dew Point 29 °F    
Average Humidity 29    
Maximum Humidity 50    
Minimum Humidity 14    
Precipitation  
Precipitation 0.00 in - - ()
Sea Level Pressure  
Sea Level Pressure 30.27 in    
Wind  
Wind Speed 5 mph (ENE)    
Max Wind Speed 14 mph    
Max Gust Speed 23 mph    
Visibility 10 miles    
Events      
Averages and records for this station are not official NWS values.
T = Trace of Precipitation, MM = Missing Value Source: NWS Daily Summary

Daily Weather History Graph

Daily Weather History Graph

Search for Another Location

Airport or City:

Astronomy

May. 11, 2013 Rise Set
Actual Time 5:26 AM MST 7:17 PM MST
Civil Twilight 4:58 AM MST 7:45 PM MST
Nautical Twilight 4:25 AM MST 8:18 PM MST
Astronomical Twilight 3:50 AM MST 8:54 PM MST
Moon 6:38 AM MST (5/11) 8:59 PM MST (5/11)
Length of Visible Light 14h 46m
Length of Day
13h 51m
Waxing Crescent, 3% of the Moon is Illuminated
May 11
Waxing Crescent
May 17
First Quarter
May 24
Full
May 31
Last Quarter
Jun 8
New

Hourly Weather History & Observations

Time (MST) Temp. Dew Point Humidity Pressure Visibility Wind Dir Wind Speed Gust Speed Precip Events Conditions
12:15 AM 53.6 °F 33.8 °F 47% 30.26 in 10.0 mi Calm Calm - N/A   Clear
12:35 AM 53.6 °F 33.8 °F 47% 30.26 in 10.0 mi Calm Calm - N/A   Clear
12:55 AM 51.8 °F 33.8 °F 50% 30.25 in 10.0 mi North 6.9 mph - N/A   Clear
1:15 AM 53.6 °F 33.8 °F 47% 30.25 in 10.0 mi Calm Calm - N/A   Clear
1:35 AM 51.8 °F 33.8 °F 50% 30.25 in 10.0 mi NNW 4.6 mph - N/A   Clear
1:55 AM 51.8 °F 32.0 °F 47% 30.25 in 10.0 mi NNE 6.9 mph - N/A   Clear
2:15 AM 53.6 °F 32.0 °F 44% 30.24 in 10.0 mi Calm Calm - N/A   Clear
2:35 AM 51.8 °F 32.0 °F 47% 30.24 in 10.0 mi North 6.9 mph - N/A   Clear
2:55 AM 53.6 °F 32.0 °F 44% 30.24 in 10.0 mi North 8.1 mph - N/A   Clear
3:15 AM 51.8 °F 32.0 °F 47% 30.23 in 10.0 mi North 8.1 mph - N/A   Clear
3:35 AM 51.8 °F 32.0 °F 47% 30.23 in 10.0 mi North 5.8 mph - N/A   Clear
3:55 AM 51.8 °F 32.0 °F 47% 30.24 in 10.0 mi NE 6.9 mph - N/A   Clear
4:15 AM 51.8 °F 32.0 °F 47% 30.24 in 10.0 mi NE 5.8 mph - N/A   Clear
4:35 AM 51.8 °F 32.0 °F 47% 30.24 in 10.0 mi NE 5.8 mph - N/A   Clear
4:55 AM 53.6 °F 32.0 °F 44% 30.25 in 10.0 mi East 6.9 mph - N/A   Clear
5:15 AM 53.6 °F 33.8 °F 47% 30.25 in 10.0 mi East 5.8 mph - N/A   Clear
5:35 AM 53.6 °F 33.8 °F 47% 30.26 in 10.0 mi East 5.8 mph - N/A   Clear
5:55 AM 53.6 °F 33.8 °F 47% 30.27 in 10.0 mi NE 4.6 mph - N/A   Clear
6:15 AM 53.6 °F 33.8 °F 47% 30.28 in 10.0 mi ENE 3.5 mph - N/A   Clear
6:35 AM 53.6 °F 33.8 °F 47% 30.28 in 10.0 mi East 3.5 mph - N/A   Clear
6:55 AM 57.2 °F 33.8 °F 41% 30.28 in 10.0 mi ESE 4.6 mph - N/A   Clear
7:15 AM 57.2 °F 35.6 °F 44% 30.28 in 10.0 mi ENE 8.1 mph - N/A   Clear
7:35 AM 60.8 °F 35.6 °F 39% 30.28 in 10.0 mi East 8.1 mph - N/A   Clear
7:55 AM 62.6 °F 33.8 °F 34% 30.29 in 10.0 mi East 6.9 mph 16.1 mph N/A   Clear
8:15 AM 64.4 °F 33.8 °F 32% 30.29 in 10.0 mi ENE 10.4 mph 18.4 mph N/A   Clear
8:35 AM 64.4 °F 32.0 °F 30% 30.29 in 10.0 mi East 10.4 mph 18.4 mph N/A   Clear
8:55 AM 66.2 °F 32.0 °F 28% 30.28 in 10.0 mi ESE 12.7 mph 18.4 mph N/A   Clear
9:15 AM 66.2 °F 32.0 °F 28% 30.28 in 10.0 mi ESE 10.4 mph - N/A   Clear
9:35 AM 68.0 °F 30.2 °F 24% 30.29 in 10.0 mi ESE 5.8 mph 18.4 mph N/A   Clear
9:55 AM 69.8 °F 28.4 °F 21% 30.29 in 10.0 mi SE 12.7 mph 20.7 mph N/A   Clear
10:15 AM 69.8 °F 30.2 °F 23% 30.30 in 10.0 mi ESE 8.1 mph 23.0 mph N/A   Clear
10:35 AM 69.8 °F 30.2 °F 23% 30.29 in 10.0 mi ESE 12.7 mph 18.4 mph N/A   Clear
10:55 AM 71.6 °F 30.2 °F 22% 30.29 in 10.0 mi SE 9.2 mph 21.9 mph N/A   Clear
11:15 AM 71.6 °F 30.2 °F 22% 30.29 in 10.0 mi ESE 11.5 mph - N/A   Scattered Clouds
11:35 AM 69.8 °F 30.2 °F 23% 30.29 in 10.0 mi NE 8.1 mph - N/A   Mostly Cloudy
11:55 AM 71.6 °F 30.2 °F 22% 30.29 in 10.0 mi East 8.1 mph - N/A   Mostly Cloudy
12:15 PM 71.6 °F 28.4 °F 20% 30.29 in 10.0 mi East 6.9 mph - N/A   Mostly Cloudy
12:35 PM 71.6 °F 28.4 °F 20% 30.28 in 10.0 mi ESE 8.1 mph - N/A   Mostly Cloudy
12:55 PM 71.6 °F 28.4 °F 20% 30.28 in 10.0 mi SE 6.9 mph 19.6 mph N/A   Mostly Cloudy
1:15 PM 73.4 °F 26.6 °F 18% 30.28 in 10.0 mi ENE 9.2 mph - N/A   Mostly Cloudy
1:35 PM 73.4 °F 24.8 °F 16% 30.28 in 10.0 mi East 10.4 mph 18.4 mph N/A   Mostly Cloudy
1:55 PM 75.2 °F 26.6 °F 17% 30.27 in 10.0 mi NE 10.4 mph - N/A   Partly Cloudy
2:15 PM 73.4 °F 26.6 °F 18% 30.26 in 10.0 mi NNE 13.8 mph - N/A   Mostly Cloudy
2:35 PM 73.4 °F 26.6 °F 18% 30.26 in 10.0 mi SSE 4.6 mph - N/A   Mostly Cloudy
2:55 PM 73.4 °F 26.6 °F 18% 30.25 in 10.0 mi ESE 8.1 mph - N/A   Mostly Cloudy
3:15 PM 75.2 °F 24.8 °F 15% 30.24 in 10.0 mi ENE 6.9 mph - N/A   Partly Cloudy
3:35 PM 75.2 °F 23.0 °F 14% 30.24 in 10.0 mi Calm Calm - N/A   Clear
3:55 PM 75.2 °F 26.6 °F 17% 30.24 in 10.0 mi ESE 8.1 mph 18.4 mph N/A   Scattered Clouds
4:15 PM 75.2 °F 24.8 °F 15% 30.23 in 10.0 mi ESE 5.8 mph - N/A   Partly Cloudy
4:35 PM 75.2 °F 23.0 °F 14% 30.23 in 10.0 mi ESE 9.2 mph - N/A   Clear
4:55 PM 73.4 °F 24.8 °F 16% 30.23 in 10.0 mi Calm Calm - N/A   Clear
5:15 PM 75.2 °F 26.6 °F 17% 30.23 in 10.0 mi ESE 6.9 mph - N/A   Mostly Cloudy
5:35 PM 73.4 °F 26.6 °F 18% 30.23 in 10.0 mi ESE 10.4 mph - N/A   Mostly Cloudy
5:55 PM 71.6 °F 26.6 °F 19% 30.23 in 10.0 mi SE 5.8 mph - N/A   Partly Cloudy
6:15 PM 71.6 °F 26.6 °F 19% 30.23 in 10.0 mi Calm Calm - N/A   Clear
6:35 PM 71.6 °F 26.6 °F 19% 30.24 in 10.0 mi Calm Calm - N/A   Clear
6:55 PM 69.8 °F 26.6 °F 20% 30.24 in 10.0 mi ENE 4.6 mph - N/A   Clear
7:15 PM 69.8 °F 26.6 °F 20% 30.25 in 10.0 mi NE 4.6 mph - N/A   Clear
7:35 PM 68.0 °F 24.8 °F 20% 30.26 in 10.0 mi NE 8.1 mph - N/A   Clear
7:55 PM 66.2 °F 24.8 °F 21% 30.26 in 10.0 mi NE 6.9 mph - N/A   Clear
8:15 PM 66.2 °F 24.8 °F 21% 30.27 in 10.0 mi NNE 5.8 mph - N/A   Clear
8:35 PM 64.4 °F 24.8 °F 22% 30.27 in 10.0 mi NNE 6.9 mph - N/A   Clear
8:55 PM 64.4 °F 24.8 °F 22% 30.28 in 10.0 mi NNE 6.9 mph - N/A   Clear
9:15 PM 62.6 °F 26.6 °F 26% 30.29 in 10.0 mi North 6.9 mph - N/A   Clear
9:35 PM 62.6 °F 26.6 °F 26% 30.29 in 10.0 mi NE 6.9 mph - N/A   Clear
9:55 PM 60.8 °F 26.6 °F 27% 30.30 in 10.0 mi East 3.5 mph - N/A   Clear
10:15 PM 62.6 °F 26.6 °F 26% 30.30 in 10.0 mi East 5.8 mph - N/A   Clear
10:35 PM 62.6 °F 26.6 °F 26% 30.30 in 10.0 mi ESE 4.6 mph - N/A   Clear
10:55 PM 62.6 °F 26.6 °F 26% 30.31 in 10.0 mi Calm Calm - N/A   Clear
11:15 PM 62.6 °F 26.6 °F 26% 30.31 in 10.0 mi Calm Calm - N/A   Clear
11:35 PM 60.8 °F 26.6 °F 27% 30.31 in 10.0 mi Calm Calm - N/A   Clear
11:55 PM 60.8 °F 26.6 °F 27% 30.31 in 10.0 mi Calm Calm - N/A   Clear